Bob Deere — WDF9423 — position and weather

sailwx.info

Track history (hours):
 
Tides and Currents Weather Stations Pressure Air Temp Water Temp Dewpoint Dewpoint Depression Visibility Wind Speed Wind Dir Waves Ship Positions

Bob Deere

Owner: Genesis Marine, LLC, Houston, TX. More information available from US FCC via Universal Licensing System and Coast Guard Vessel Documentation Center.

Last reported at 2018-Jan-19 04:29 UTC. Time now 2018-Jan-19 07:14 UTC.
Position N 29°50' W 092°00'.

Length 24 m; draft 3.3 m.

Type: Towing. MMSI: 367505010.

Date/timePositionNaut miles runAvg speedWind from/ knotsBaromVisibWave heightAir tempDewpointWater temp
2018-Jan-19 04:29N 29°50' W 092°00'2 4.7
2018-Jan-19 04:00N 29°49' W 092°03'2 4.9
2018-Jan-19 03:30N 29°48' W 092°05'2 5.0
2018-Jan-19 03:00N 29°47' W 092°08'2 3.7
2018-Jan-19 02:30N 29°47' W 092°10'2 3.1
2018-Jan-19 02:00N 29°47' W 092°12'1 2.1
2018-Jan-19 01:30N 29°47' W 092°13'2 4.8
2018-Jan-19 01:00N 29°48' W 092°16'2 4.1
2018-Jan-19 00:28N 29°50' W 092°18'2 3.4
2018-Jan-18 23:58N 29°50' W 092°19'2 3.9
2018-Jan-18 23:26N 29°51' W 092°22'39 5.6
2018-Jan-18 16:21N 29°56' W 093°07'2 5.2
2018-Jan-18 16:01N 29°56' W 093°09'3 5.2
2018-Jan-18 15:30N 29°58' W 093°11'2 3.2
2018-Jan-18 15:00N 29°59' W 093°12'1 1.6
2018-Jan-18 14:30N 29°60' W 093°13'2 4.4
2018-Jan-18 14:01N 30°02' W 093°14'1 1.8
2018-Jan-18 13:30N 30°02' W 093°15'0 0.1
2018-Jan-18 13:00N 30°02' W 093°15'2 3.9
2018-Jan-18 12:30N 30°04' W 093°16'2 4.3
2018-Jan-18 12:00N 30°05' W 093°18'1 1.7
2018-Jan-18 11:30N 30°06' W 093°18'1 1.4
2018-Jan-18 11:00N 30°06' W 093°19'2 3.1
2018-Jan-18 10:30N 30°05' W 093°20'2 4.5
2018-Jan-18 10:00N 30°04' W 093°22'1 1.8
2018-Jan-18 09:30N 30°04' W 093°24'0 0.0
2018-Jan-18 09:00N 30°04' W 093°24'2 3.3
2018-Jan-18 08:30N 30°04' W 093°25'3 6.0
2018-Jan-18 08:00N 30°04' W 093°29'2 4.0
2018-Jan-18 07:30N 30°04' W 093°31'3 6.2
2018-Jan-18 07:00N 30°04' W 093°35'3 6.4
2018-Jan-18 06:30N 30°04' W 093°39'3 6.5
2018-Jan-18 06:00N 30°03' W 093°42'  
2018-Jan-12 09:44N 29°46' W 095°06'0 0.0
2018-Jan-12 08:38N 29°46' W 095°06'1 1.0
2018-Jan-12 07:40N 29°46' W 095°05'2 3.6
2018-Jan-12 07:13N 29°47' W 095°04'0 0.0
2018-Jan-12 06:17N 29°47' W 095°04'0 0.1
2018-Jan-12 02:26N 29°47' W 095°04'1 2.9
2018-Jan-12 01:56N 29°45' W 095°04'2 5.0
2018-Jan-12 01:30N 29°44' W 095°02'2 4.2
2018-Jan-12 01:00N 29°42' W 095°01'2 4.2
2018-Jan-12 00:30N 29°41' W 094°59'2 5.0
2018-Jan-12 00:00N 29°39' W 094°58'2 5.0
2018-Jan-11 23:30N 29°36' W 094°57'3 5.1
2018-Jan-11 23:00N 29°34' W 094°55'3 6.2
2018-Jan-11 22:28N 29°31' W 094°53'  
Track history (hours):
 
Tides and Currents Weather Stations Pressure Air Temp Water Temp Dewpoint Dewpoint Depression Visibility Wind Speed Wind Dir Waves Ship Positions

Bob Deere

Owner: Genesis Marine, LLC, Houston, TX. More information available from US FCC via Universal Licensing System and Coast Guard Vessel Documentation Center.

Last reported at 2018-Jan-19 04:29 UTC. Time now 2018-Jan-19 07:14 UTC.
Position N 29°50' W 092°00'.

Length 24 m; draft 3.3 m.

Type: Towing. MMSI: 367505010.

Date/timePositionNaut miles runAvg speedWind from/ knotsBaromVisibWave heightAir tempDewpointWater temp
2018-Jan-19 04:29N 29°50' W 092°00'2 4.7
2018-Jan-19 04:00N 29°49' W 092°03'2 4.9
2018-Jan-19 03:30N 29°48' W 092°05'2 5.0
2018-Jan-19 03:00N 29°47' W 092°08'2 3.7
2018-Jan-19 02:30N 29°47' W 092°10'2 3.1
2018-Jan-19 02:00N 29°47' W 092°12'1 2.1
2018-Jan-19 01:30N 29°47' W 092°13'2 4.8
2018-Jan-19 01:00N 29°48' W 092°16'2 4.1
2018-Jan-19 00:28N 29°50' W 092°18'2 3.4
2018-Jan-18 23:58N 29°50' W 092°19'2 3.9
2018-Jan-18 23:26N 29°51' W 092°22'39 5.6
2018-Jan-18 16:21N 29°56' W 093°07'2 5.2
2018-Jan-18 16:01N 29°56' W 093°09'3 5.2
2018-Jan-18 15:30N 29°58' W 093°11'2 3.2
2018-Jan-18 15:00N 29°59' W 093°12'1 1.6
2018-Jan-18 14:30N 29°60' W 093°13'2 4.4
2018-Jan-18 14:01N 30°02' W 093°14'1 1.8
2018-Jan-18 13:30N 30°02' W 093°15'0 0.1
2018-Jan-18 13:00N 30°02' W 093°15'2 3.9
2018-Jan-18 12:30N 30°04' W 093°16'2 4.3
2018-Jan-18 12:00N 30°05' W 093°18'1 1.7
2018-Jan-18 11:30N 30°06' W 093°18'1 1.4
2018-Jan-18 11:00N 30°06' W 093°19'2 3.1
2018-Jan-18 10:30N 30°05' W 093°20'2 4.5
2018-Jan-18 10:00N 30°04' W 093°22'1 1.8
2018-Jan-18 09:30N 30°04' W 093°24'0 0.0
2018-Jan-18 09:00N 30°04' W 093°24'2 3.3
2018-Jan-18 08:30N 30°04' W 093°25'3 6.0
2018-Jan-18 08:00N 30°04' W 093°29'2 4.0
2018-Jan-18 07:30N 30°04' W 093°31'3 6.2
2018-Jan-18 07:00N 30°04' W 093°35'3 6.4
2018-Jan-18 06:30N 30°04' W 093°39'3 6.5
2018-Jan-18 06:00N 30°03' W 093°42'  
2018-Jan-12 09:44N 29°46' W 095°06'0 0.0
2018-Jan-12 08:38N 29°46' W 095°06'1 1.0
2018-Jan-12 07:40N 29°46' W 095°05'2 3.6
2018-Jan-12 07:13N 29°47' W 095°04'0 0.0
2018-Jan-12 06:17N 29°47' W 095°04'0 0.1
2018-Jan-12 02:26N 29°47' W 095°04'1 2.9
2018-Jan-12 01:56N 29°45' W 095°04'2 5.0
2018-Jan-12 01:30N 29°44' W 095°02'2 4.2
2018-Jan-12 01:00N 29°42' W 095°01'2 4.2
2018-Jan-12 00:30N 29°41' W 094°59'2 5.0
2018-Jan-12 00:00N 29°39' W 094°58'2 5.0
2018-Jan-11 23:30N 29°36' W 094°57'3 5.1
2018-Jan-11 23:00N 29°34' W 094°55'3 6.2
2018-Jan-11 22:28N 29°31' W 094°53'  

Dump ship's entire track history